Decoded Metar for UKBB (KIEV in UKRAINE) (IATA:KBP) | Meteo·Mobile Aviation Weather
aviador You're here:

UKBB Decoded Metar

KIEV in UKRAINE
Report Time2019-07-16 10:30:00
UTC Time2019-07-16 10:40:33
Flight Rules vfr VFR
Wind330° at 10 kt
W.Decomp.*RWY 36: 8.2 kt HW 5.7 kt LCW
Visibility9999 m
Phenomena:N/A
Clouds:Scattered 040 Hf
Expected CloudBase > 4,400 ft AGL from Temp-Dew spread
CeilingNone
Temp23°C (ISA +9)
Dew Point12°C (50% RH)
AAT20.0°C
QNH1009 hPa
Density Alt1,736 ft
Elevation390 ft
Report Wrong Elevation
Raw Report
UKBB 161030Z 33005MPS 300V360 9999 SCT040 23/12 Q1009 R88/CLRD//
NOSIG=

Extra information for UKBB:More info

Metar Taf Metar & Taf Last 4 Metars F.Rules Stats Wind Profile Meteogram Temp Stats Airport Information Weather charts Add Link Nearby VenuesMetar ALERT Operation Metar Decoded Social comments